createdAt,value
2023-09-19T00:00:06.602Z,100.00
2023-09-19T00:02:08.163Z,100.00
2023-09-19T00:04:09.787Z,100.00
2023-09-19T00:06:11.441Z,100.00
2023-09-19T00:08:12.971Z,100.00
2023-09-19T00:10:14.618Z,100.00
2023-09-19T00:12:16.186Z,100.00
2023-09-19T00:14:17.680Z,100.00
2023-09-19T00:16:20.682Z,100.00
2023-09-19T00:18:23.878Z,100.00
2023-09-19T00:20:25.613Z,100.00
2023-09-19T00:22:27.154Z,100.00
2023-09-19T00:24:28.685Z,100.00
2023-09-19T00:26:30.270Z,100.00
2023-09-19T00:28:31.819Z,100.00
2023-09-19T00:30:33.647Z,100.00
2023-09-19T00:32:36.595Z,100.00
2023-09-19T00:34:38.166Z,100.00
2023-09-19T00:36:39.714Z,100.00
2023-09-19T00:38:41.248Z,100.00
2023-09-19T00:40:44.886Z,100.00
2023-09-19T00:42:47.295Z,100.00
2023-09-19T00:44:48.817Z,100.00
2023-09-19T00:46:50.854Z,100.00
2023-09-19T00:48:53.826Z,100.00
2023-09-19T00:50:58.309Z,100.00
2023-09-19T00:53:00.292Z,100.00
2023-09-19T00:55:01.864Z,100.00
2023-09-19T00:57:03.855Z,100.00
2023-09-19T00:59:05.396Z,100.00
2023-09-19T01:01:08.259Z,100.00
2023-09-19T01:03:10.863Z,100.00
2023-09-19T01:05:14.255Z,100.00
2023-09-19T01:07:16.013Z,100.00
2023-09-19T01:09:17.654Z,100.00
2023-09-19T01:11:26.613Z,100.00
2023-09-19T01:13:35.801Z,100.00
2023-09-19T01:15:45.710Z,100.00
2023-09-19T01:17:53.960Z,100.00
2023-09-19T01:20:09.956Z,100.00
2023-09-19T01:22:21.049Z,100.00
2023-09-19T01:24:55.954Z,100.00
2023-09-19T01:27:17.766Z,100.00
2023-09-19T01:29:34.508Z,100.00
2023-09-19T01:31:38.754Z,100.00
2023-09-19T01:33:57.521Z,100.00
2023-09-19T01:35:59.039Z,100.00
2023-09-19T01:38:00.620Z,100.00
2023-09-19T01:40:05.406Z,100.00
2023-09-19T01:42:18.178Z,100.00
2023-09-19T01:44:27.382Z,100.00
2023-09-19T01:46:34.101Z,100.00
2023-09-19T01:48:44.719Z,100.00
2023-09-19T01:50:56.209Z,100.00
2023-09-19T01:53:03.099Z,100.00
2023-09-19T01:55:09.671Z,100.00
2023-09-19T01:57:18.512Z,100.00
2023-09-19T01:59:25.679Z,100.00
2023-09-19T02:01:28.239Z,100.00
2023-09-19T02:03:31.865Z,100.00
2023-09-19T02:05:34.952Z,100.00
2023-09-19T02:07:36.584Z,100.00
2023-09-19T02:09:38.091Z,100.00
2023-09-19T02:11:39.621Z,100.00
2023-09-19T02:13:42.693Z,100.00
2023-09-19T02:15:44.560Z,100.00
2023-09-19T02:17:46.135Z,100.00
2023-09-19T02:19:47.743Z,100.00
2023-09-19T02:21:50.660Z,100.00
2023-09-19T02:23:52.207Z,100.00
2023-09-19T02:25:53.972Z,100.00
2023-09-19T02:27:57.399Z,100.00
2023-09-19T02:29:58.960Z,100.00
2023-09-19T02:32:00.646Z,100.00
2023-09-19T02:34:02.252Z,100.00
2023-09-19T02:36:04.336Z,100.00
2023-09-19T02:38:07.430Z,100.00
2023-09-19T02:40:09.908Z,100.00
2023-09-19T02:42:11.471Z,100.00
2023-09-19T02:44:13.076Z,100.00
2023-09-19T02:46:15.137Z,100.00
2023-09-19T02:48:16.907Z,100.00
2023-09-19T02:50:18.568Z,100.00
2023-09-19T02:52:20.190Z,100.00
2023-09-19T02:54:23.202Z,100.00
2023-09-19T02:56:24.806Z,100.00
2023-09-19T02:58:26.524Z,100.00
2023-09-19T03:00:28.233Z,100.00
2023-09-19T03:02:29.854Z,100.00
2023-09-19T03:04:31.533Z,100.00
2023-09-19T03:06:33.182Z,100.00
2023-09-19T03:08:34.745Z,100.00
2023-09-19T03:10:37.608Z,100.00
2023-09-19T03:12:39.179Z,100.00
2023-09-19T03:14:40.748Z,100.00
2023-09-19T03:16:42.469Z,100.00
2023-09-19T03:18:44.075Z,100.00
2023-09-19T03:20:53.654Z,100.00
2023-09-19T03:22:55.243Z,100.00
2023-09-19T03:24:56.912Z,100.00
2023-09-19T03:26:59.888Z,100.00
2023-09-19T03:29:04.808Z,100.00
2023-09-19T03:31:07.558Z,100.00
2023-09-19T03:33:09.168Z,100.00
2023-09-19T03:35:10.749Z,100.00
2023-09-19T03:37:12.370Z,100.00
2023-09-19T03:39:13.985Z,100.00
2023-09-19T03:41:15.682Z,100.00
2023-09-19T03:43:18.658Z,100.00
2023-09-19T03:45:20.169Z,100.00
2023-09-19T03:47:21.738Z,100.00
2023-09-19T03:49:23.360Z,100.00
2023-09-19T03:51:24.842Z,100.00
2023-09-19T03:53:26.344Z,100.00
2023-09-19T03:55:27.845Z,100.00
2023-09-19T03:57:29.346Z,100.00
2023-09-19T03:59:32.209Z,100.00
2023-09-19T04:01:33.745Z,100.00
2023-09-19T04:03:35.714Z,100.00
2023-09-19T04:05:37.521Z,100.00
2023-09-19T04:07:39.152Z,100.00
2023-09-19T04:09:40.709Z,100.00
2023-09-19T04:11:42.237Z,100.00
2023-09-19T04:13:43.994Z,100.00
2023-09-19T04:15:47.004Z,100.00
2023-09-19T04:17:48.577Z,100.00
2023-09-19T04:19:50.274Z,100.00
2023-09-19T04:21:51.815Z,100.00
2023-09-19T04:23:53.309Z,100.00
2023-09-19T04:25:54.847Z,100.00
2023-09-19T04:27:56.411Z,100.00
2023-09-19T04:29:57.949Z,100.00
2023-09-19T04:32:00.895Z,100.00
2023-09-19T04:34:02.513Z,100.00
2023-09-19T04:36:14.859Z,100.00
2023-09-19T04:38:25.991Z,100.00
2023-09-19T04:40:27.759Z,100.00
2023-09-19T04:42:29.420Z,100.00
2023-09-19T04:44:30.971Z,100.00
2023-09-19T04:46:32.602Z,100.00
2023-09-19T04:48:35.508Z,100.00
2023-09-19T04:50:37.074Z,100.00
2023-09-19T04:52:42.483Z,100.00
2023-09-19T04:54:44.107Z,100.00
2023-09-19T04:56:45.591Z,100.00
2023-09-19T04:58:47.141Z,100.00
2023-09-19T05:00:48.634Z,100.00
2023-09-19T05:02:50.729Z,100.00
2023-09-19T05:04:53.873Z,100.00
2023-09-19T05:06:55.484Z,100.00
2023-09-19T05:08:56.985Z,100.00
2023-09-19T05:10:58.498Z,100.00
2023-09-19T05:13:00.071Z,100.00
2023-09-19T05:15:01.678Z,100.00
2023-09-19T05:17:03.415Z,100.00
2023-09-19T05:19:05.061Z,100.00
2023-09-19T05:21:07.953Z,100.00
2023-09-19T05:23:09.465Z,100.00
2023-09-19T05:25:11.001Z,100.00
2023-09-19T05:27:12.484Z,100.00
2023-09-19T05:29:14.230Z,100.00
2023-09-19T05:31:15.760Z,100.00
2023-09-19T05:33:17.410Z,100.00
2023-09-19T05:35:18.943Z,100.00
2023-09-19T05:37:21.863Z,100.00
2023-09-19T05:39:23.454Z,100.00
2023-09-19T05:41:25.001Z,100.00
2023-09-19T05:43:26.507Z,100.00
2023-09-19T05:45:28.071Z,100.00
2023-09-19T05:47:29.631Z,100.00
2023-09-19T05:49:31.251Z,100.00
2023-09-19T05:51:32.763Z,100.00
2023-09-19T05:53:35.633Z,100.00
2023-09-19T05:55:37.135Z,100.00
2023-09-19T05:57:39.071Z,100.00
2023-09-19T05:59:40.549Z,100.00
2023-09-19T06:01:42.117Z,100.00
2023-09-19T06:03:43.665Z,100.00
2023-09-19T06:05:45.458Z,100.00
2023-09-19T06:07:47.501Z,100.00
2023-09-19T06:09:50.415Z,100.00
2023-09-19T06:11:51.945Z,100.00
2023-09-19T06:13:53.444Z,100.00
2023-09-19T06:15:55.685Z,100.00
2023-09-19T06:17:57.369Z,100.00
2023-09-19T06:19:58.923Z,100.00
2023-09-19T06:22:00.624Z,100.00
2023-09-19T06:24:02.187Z,100.00
2023-09-19T06:26:05.035Z,100.00
2023-09-19T06:28:06.660Z,100.00
2023-09-19T06:30:09.394Z,100.00
2023-09-19T06:32:10.984Z,100.00
2023-09-19T06:34:12.545Z,100.00
2023-09-19T06:36:14.091Z,100.00
2023-09-19T06:38:15.675Z,100.00
2023-09-19T06:40:17.357Z,100.00
2023-09-19T06:42:22.262Z,100.00
2023-09-19T06:44:24.004Z,100.00
2023-09-19T06:46:25.557Z,100.00
2023-09-19T06:48:27.162Z,100.00
2023-09-19T06:50:28.778Z,100.00
2023-09-19T06:52:30.391Z,100.00
2023-09-19T06:54:31.947Z,100.00
2023-09-19T06:56:33.507Z,100.00
2023-09-19T06:58:36.464Z,100.00
2023-09-19T07:00:37.987Z,100.00
2023-09-19T07:02:39.578Z,100.00
2023-09-19T07:04:41.146Z,100.00
2023-09-19T07:06:42.683Z,100.00
2023-09-19T07:08:44.172Z,100.00
2023-09-19T07:10:45.696Z,100.00
2023-09-19T07:12:47.255Z,100.00
2023-09-19T07:14:50.093Z,100.00
2023-09-19T07:16:51.610Z,100.00
2023-09-19T07:18:53.160Z,100.00
2023-09-19T07:20:58.486Z,100.00
2023-09-19T07:23:00.525Z,100.00
2023-09-19T07:25:02.070Z,100.00
2023-09-19T07:27:03.844Z,100.00
2023-09-19T07:29:05.441Z,100.00
2023-09-19T07:31:08.327Z,100.00
2023-09-19T07:33:09.939Z,100.00
2023-09-19T07:35:11.454Z,100.00
2023-09-19T07:37:12.957Z,100.00
2023-09-19T07:39:23.153Z,100.00
2023-09-19T07:41:25.313Z,100.00
2023-09-19T07:43:26.850Z,100.00
2023-09-19T07:45:28.448Z,100.00
2023-09-19T07:47:31.533Z,100.00
2023-09-19T07:49:33.204Z,100.00
2023-09-19T07:51:34.819Z,100.00
2023-09-19T07:53:36.857Z,100.00
2023-09-19T07:55:38.408Z,100.00
2023-09-19T07:57:39.956Z,100.00
2023-09-19T07:59:41.503Z,100.00
2023-09-19T08:01:43.059Z,100.00
2023-09-19T08:03:46.194Z,100.00
2023-09-19T08:05:47.787Z,100.00
2023-09-19T08:07:49.375Z,100.00
2023-09-19T08:09:50.892Z,100.00
2023-09-19T08:11:52.432Z,99.77
2023-09-19T08:13:54.042Z,98.76
2023-09-19T08:15:55.689Z,100.00
2023-09-19T08:17:57.462Z,100.00
2023-09-19T08:20:00.425Z,99.57
2023-09-19T08:22:02.025Z,100.00
2023-09-19T08:24:03.775Z,98.56
2023-09-19T08:26:05.346Z,99.83
2023-09-19T08:28:06.971Z,98.99
2023-09-19T08:30:08.984Z,98.86
2023-09-19T08:32:10.511Z,98.46
2023-09-19T08:34:12.124Z,97.83
2023-09-19T08:36:15.076Z,98.38
2023-09-19T08:38:16.701Z,97.51
2023-09-19T08:40:18.506Z,97.54
2023-09-19T08:42:20.065Z,98.88
2023-09-19T08:44:21.585Z,93.00
2023-09-19T08:46:30.421Z,93.21
2023-09-19T08:48:33.160Z,94.67
2023-09-19T08:50:40.418Z,93.36
2023-09-19T08:52:44.878Z,93.49
2023-09-19T08:54:49.799Z,93.79
2023-09-19T08:56:52.061Z,92.10
2023-09-19T08:58:58.391Z,90.86
2023-09-19T09:01:01.451Z,91.03
2023-09-19T09:03:04.302Z,91.75
2023-09-19T09:05:07.349Z,89.73
2023-09-19T09:07:12.067Z,88.84
2023-09-19T09:09:15.256Z,85.25
2023-09-19T09:11:17.326Z,84.28
2023-09-19T09:13:19.305Z,82.72
2023-09-19T09:15:22.039Z,78.43
2023-09-19T09:17:23.843Z,77.43
2023-09-19T09:19:25.931Z,73.51
2023-09-19T09:21:27.699Z,74.25
2023-09-19T09:23:29.235Z,73.62
2023-09-19T09:25:51.860Z,73.92
2023-09-19T09:28:00.107Z,72.61
2023-09-19T09:30:01.649Z,72.51
2023-09-19T09:32:18.066Z,73.02
2023-09-19T09:34:19.629Z,73.62
2023-09-19T09:36:34.917Z,72.11
2023-09-19T09:38:45.096Z,70.53
2023-09-19T09:40:47.849Z,69.76
2023-09-19T09:42:50.808Z,68.40
2023-09-19T09:45:13.706Z,67.83
2023-09-19T09:47:20.109Z,69.42
2023-09-19T09:49:24.473Z,67.81
2023-09-19T09:51:30.682Z,67.46
2023-09-19T09:53:32.204Z,66.70
2023-09-19T09:55:58.916Z,65.89
2023-09-19T09:58:20.040Z,66.33
2023-09-19T10:00:21.763Z,64.94
2023-09-19T10:02:27.554Z,67.12
2023-09-19T10:04:29.981Z,66.97
2023-09-19T10:06:42.007Z,67.64
2023-09-19T10:08:58.827Z,66.55
2023-09-19T10:11:00.578Z,65.05
2023-09-19T10:13:02.335Z,63.80
2023-09-19T10:15:07.555Z,65.42
2023-09-19T10:17:11.097Z,64.99
2023-09-19T10:19:17.025Z,63.62
2023-09-19T10:21:18.650Z,63.06
2023-09-19T10:23:21.630Z,63.34
2023-09-19T10:25:25.167Z,63.86
2023-09-19T10:27:27.616Z,64.52
2023-09-19T10:29:33.020Z,64.09
2023-09-19T10:31:38.556Z,64.73
2023-09-19T10:33:40.690Z,62.44
2023-09-19T10:35:44.761Z,63.29
2023-09-19T10:37:49.266Z,62.55
2023-09-19T10:39:51.489Z,63.55
2023-09-19T10:41:56.113Z,63.88
2023-09-19T10:43:59.473Z,62.28
2023-09-19T10:46:03.644Z,63.25
2023-09-19T10:48:07.026Z,62.92
2023-09-19T10:50:08.801Z,62.74
2023-09-19T10:52:10.802Z,62.95
2023-09-19T10:54:14.868Z,61.79
2023-09-19T10:56:22.100Z,62.21
2023-09-19T10:58:28.284Z,62.29
2023-09-19T11:00:33.072Z,61.84
2023-09-19T11:02:34.779Z,61.98
2023-09-19T11:04:38.046Z,61.89
2023-09-19T11:06:40.285Z,63.44
2023-09-19T11:08:56.353Z,63.84
2023-09-19T11:10:57.904Z,62.90
2023-09-19T11:12:59.444Z,62.54
2023-09-19T11:15:01.135Z,62.44
2023-09-19T11:17:42.298Z,62.95
2023-09-19T11:20:22.853Z,61.55
2023-09-19T11:22:24.446Z,62.22
2023-09-19T11:24:30.588Z,62.90
2023-09-19T11:26:41.567Z,63.95
2023-09-19T11:28:43.311Z,63.64
2023-09-19T11:30:46.453Z,63.61
2023-09-19T11:33:19.798Z,63.50
2023-09-19T11:35:22.685Z,63.75
2023-09-19T11:38:01.101Z,64.08
2023-09-19T11:40:09.649Z,63.32
2023-09-19T11:42:44.929Z,62.12
2023-09-19T11:44:46.528Z,62.25
2023-09-19T11:46:55.646Z,61.07
2023-09-19T11:49:06.525Z,60.66
2023-09-19T11:51:23.358Z,61.41
2023-09-19T11:53:31.800Z,60.72
2023-09-19T11:55:33.708Z,59.45
2023-09-19T11:57:36.364Z,59.85
2023-09-19T11:59:40.065Z,59.64
2023-09-19T12:01:51.982Z,59.62
2023-09-19T12:03:57.991Z,59.64
2023-09-19T12:06:00.365Z,59.18
2023-09-19T12:08:04.596Z,59.05
2023-09-19T12:10:08.366Z,59.08
2023-09-19T12:12:09.932Z,59.23
2023-09-19T12:14:11.648Z,58.97
2023-09-19T12:16:17.797Z,58.41
2023-09-19T12:18:28.602Z,57.95
2023-09-19T12:20:43.456Z,57.93
2023-09-19T12:22:46.645Z,57.67
2023-09-19T12:24:49.696Z,57.92
2023-09-19T12:26:52.602Z,57.22
2023-09-19T12:28:54.807Z,57.27
2023-09-19T12:30:56.638Z,56.95
2023-09-19T12:32:58.349Z,57.10
2023-09-19T12:34:59.884Z,57.45
2023-09-19T12:37:08.716Z,56.04
2023-09-19T12:39:10.313Z,54.57
2023-09-19T12:41:13.341Z,54.59
2023-09-19T12:43:15.251Z,54.30
2023-09-19T12:45:17.875Z,55.43
2023-09-19T12:47:19.830Z,55.26
2023-09-19T12:49:21.619Z,56.04
2023-09-19T12:51:23.162Z,55.43
2023-09-19T12:53:28.004Z,54.81
2023-09-19T12:55:31.481Z,54.76
2023-09-19T12:57:34.500Z,54.20
2023-09-19T12:59:39.088Z,54.72
2023-09-19T13:01:42.956Z,54.42
2023-09-19T13:03:44.924Z,53.54
2023-09-19T13:05:54.305Z,53.29
2023-09-19T13:07:56.041Z,52.77
2023-09-19T13:10:04.211Z,52.73
2023-09-19T13:12:06.410Z,51.58
2023-09-19T13:14:18.033Z,51.92
2023-09-19T13:16:19.671Z,50.65
2023-09-19T13:18:21.305Z,50.79
2023-09-19T13:20:23.740Z,50.11
2023-09-19T13:22:38.288Z,49.37
2023-09-19T13:24:39.809Z,48.86
2023-09-19T13:26:41.290Z,50.22
2023-09-19T13:28:42.931Z,50.76
2023-09-19T13:30:45.857Z,51.02
2023-09-19T13:32:47.870Z,50.96
2023-09-19T13:34:49.413Z,50.13
2023-09-19T13:36:51.219Z,50.33
2023-09-19T13:38:52.733Z,50.74
2023-09-19T13:40:54.275Z,50.34
2023-09-19T13:42:55.843Z,49.85
2023-09-19T13:44:57.388Z,49.36
2023-09-19T13:47:00.303Z,49.60
2023-09-19T13:49:01.890Z,49.30
2023-09-19T13:51:03.959Z,49.59
2023-09-19T13:53:05.502Z,50.04
2023-09-19T13:55:07.653Z,50.77
2023-09-19T13:57:10.973Z,50.13
2023-09-19T13:59:12.973Z,49.79
2023-09-19T14:01:14.629Z,49.98
2023-09-19T14:03:17.709Z,49.84
2023-09-19T14:05:19.570Z,49.52
2023-09-19T14:07:21.383Z,49.10
2023-09-19T14:09:23.061Z,49.00
2023-09-19T14:11:24.559Z,49.49
2023-09-19T14:13:26.064Z,49.01
2023-09-19T14:15:28.279Z,49.85
2023-09-19T14:17:29.914Z,50.71
2023-09-19T14:19:33.011Z,50.12
2023-09-19T14:21:34.665Z,50.03
2023-09-19T14:23:36.814Z,49.40
2023-09-19T14:25:38.319Z,48.40
2023-09-19T14:27:39.883Z,48.12
2023-09-19T14:29:41.420Z,47.99
2023-09-19T14:31:43.614Z,47.24
2023-09-19T14:33:45.202Z,46.25
2023-09-19T14:35:48.068Z,46.68
2023-09-19T14:37:49.615Z,46.40
2023-09-19T14:39:51.136Z,46.16
2023-09-19T14:41:52.697Z,45.68
2023-09-19T14:43:54.360Z,45.25
2023-09-19T14:45:55.965Z,46.05
2023-09-19T14:47:57.592Z,45.99
2023-09-19T14:49:59.220Z,46.87
2023-09-19T14:52:02.107Z,46.97
2023-09-19T14:54:03.964Z,47.33
2023-09-19T14:56:06.530Z,47.63
2023-09-19T14:58:08.182Z,46.46
2023-09-19T15:00:10.801Z,46.71
2023-09-19T15:02:12.435Z,47.14
2023-09-19T15:04:14.147Z,46.51
2023-09-19T15:06:15.833Z,46.82
2023-09-19T15:08:18.903Z,47.44
2023-09-19T15:10:20.451Z,47.29
2023-09-19T15:12:22.289Z,47.67
2023-09-19T15:14:23.849Z,48.34
2023-09-19T15:16:25.554Z,48.36
2023-09-19T15:18:27.305Z,48.44
2023-09-19T15:20:28.846Z,48.47
2023-09-19T15:22:30.337Z,49.17
2023-09-19T15:24:33.539Z,48.85
2023-09-19T15:26:35.126Z,49.03
2023-09-19T15:28:36.866Z,49.59
2023-09-19T15:30:38.637Z,49.79
2023-09-19T15:32:40.184Z,49.39
2023-09-19T15:34:41.925Z,50.06
2023-09-19T15:36:43.490Z,49.44
2023-09-19T15:39:02.222Z,49.67
2023-09-19T15:41:05.268Z,49.85
2023-09-19T15:43:06.814Z,50.36
2023-09-19T15:45:09.295Z,50.04
2023-09-19T15:47:10.878Z,49.92
2023-09-19T15:49:13.417Z,49.94
2023-09-19T15:51:15.036Z,50.53
2023-09-19T15:53:16.559Z,50.89
2023-09-19T15:55:18.308Z,51.03
2023-09-19T15:57:21.187Z,51.61
2023-09-19T15:59:22.813Z,50.87
2023-09-19T16:01:24.623Z,50.51
2023-09-19T16:03:26.544Z,50.46
2023-09-19T16:05:28.318Z,50.56
2023-09-19T16:07:29.865Z,51.36
2023-09-19T16:09:31.460Z,50.74
2023-09-19T16:11:35.097Z,51.87
2023-09-19T16:13:38.848Z,51.94
2023-09-19T16:15:42.681Z,52.23
2023-09-19T16:17:44.321Z,52.45
2023-09-19T16:19:45.895Z,52.84
2023-09-19T16:21:47.440Z,52.75
2023-09-19T16:23:50.035Z,52.90
2023-09-19T16:26:01.613Z,52.81
2023-09-19T16:28:03.422Z,52.36
2023-09-19T16:30:08.608Z,52.85
2023-09-19T16:32:10.321Z,53.07
2023-09-19T16:34:11.908Z,53.46
2023-09-19T16:36:15.280Z,53.78
2023-09-19T16:38:16.867Z,54.84
2023-09-19T16:40:18.430Z,54.96
2023-09-19T16:42:21.167Z,55.16
2023-09-19T16:44:23.140Z,55.19
2023-09-19T16:46:26.332Z,55.17
2023-09-19T16:48:28.830Z,55.84
2023-09-19T16:50:32.780Z,56.41
2023-09-19T16:52:35.278Z,57.28
2023-09-19T16:54:36.807Z,57.31
2023-09-19T16:56:38.358Z,57.95
2023-09-19T16:58:41.126Z,57.47
2023-09-19T17:00:43.154Z,57.82
2023-09-19T17:02:50.674Z,58.16
2023-09-19T17:04:54.392Z,58.45
2023-09-19T17:06:55.925Z,58.57
2023-09-19T17:08:57.408Z,58.82
2023-09-19T17:11:03.528Z,59.53
2023-09-19T17:13:05.114Z,59.25
2023-09-19T17:15:07.998Z,59.36
2023-09-19T17:17:09.570Z,59.89
2023-09-19T17:19:12.451Z,59.97
2023-09-19T17:21:13.985Z,60.36
2023-09-19T17:23:15.619Z,60.69
2023-09-19T17:25:17.388Z,60.89
2023-09-19T17:27:18.888Z,61.01
2023-09-19T17:29:20.407Z,61.33
2023-09-19T17:31:24.449Z,61.94
2023-09-19T17:33:26.643Z,62.44
2023-09-19T17:35:30.489Z,62.12
2023-09-19T17:37:34.570Z,62.42
2023-09-19T17:39:36.087Z,62.95
2023-09-19T17:41:37.711Z,63.12
2023-09-19T17:43:39.655Z,63.41
2023-09-19T17:45:41.207Z,63.79
2023-09-19T17:47:42.798Z,63.63
2023-09-19T17:49:44.424Z,63.69
2023-09-19T17:51:47.338Z,63.36
2023-09-19T17:53:48.905Z,63.64
2023-09-19T17:55:50.455Z,63.89
2023-09-19T17:57:53.627Z,64.23
2023-09-19T17:59:56.259Z,64.52
2023-09-19T18:01:57.844Z,64.85
2023-09-19T18:04:00.422Z,64.83
2023-09-19T18:06:02.510Z,65.12
2023-09-19T18:08:05.702Z,65.22
2023-09-19T18:10:08.338Z,65.53
2023-09-19T18:12:09.867Z,66.13
2023-09-19T18:14:11.441Z,66.33
2023-09-19T18:16:13.196Z,66.19
2023-09-19T18:18:14.853Z,66.52
2023-09-19T18:20:16.760Z,66.72
2023-09-19T18:22:18.306Z,66.92
2023-09-19T18:24:21.214Z,67.18
2023-09-19T18:26:22.769Z,66.72
2023-09-19T18:28:24.419Z,66.67
2023-09-19T18:30:26.014Z,67.16
2023-09-19T18:32:27.580Z,67.47
2023-09-19T18:34:29.168Z,68.07
2023-09-19T18:36:30.838Z,68.53
2023-09-19T18:38:32.336Z,68.98
2023-09-19T18:40:35.700Z,69.40
2023-09-19T18:42:37.324Z,69.66
2023-09-19T18:44:38.821Z,69.54
2023-09-19T18:46:40.455Z,69.58
2023-09-19T18:48:43.801Z,69.75
2023-09-19T18:50:45.355Z,71.12
2023-09-19T18:52:46.876Z,71.45
2023-09-19T18:54:49.015Z,71.34
2023-09-19T18:56:52.232Z,70.84
2023-09-19T18:58:53.865Z,70.34
2023-09-19T19:01:01.715Z,69.97
2023-09-19T19:03:03.566Z,69.83
2023-09-19T19:05:05.732Z,69.77
2023-09-19T19:07:07.510Z,70.09
2023-09-19T19:09:09.014Z,69.90
2023-09-19T19:11:12.608Z,70.16
2023-09-19T19:13:15.541Z,70.09
2023-09-19T19:15:17.206Z,69.95
2023-09-19T19:17:18.873Z,69.66
2023-09-19T19:19:20.585Z,69.54
2023-09-19T19:21:22.180Z,69.74
2023-09-19T19:23:23.767Z,69.35
2023-09-19T19:25:25.410Z,69.46
2023-09-19T19:27:27.032Z,69.51
2023-09-19T19:29:30.065Z,69.69
2023-09-19T19:31:31.717Z,70.29
2023-09-19T19:33:33.346Z,70.78
2023-09-19T19:35:34.952Z,70.04
2023-09-19T19:37:36.770Z,70.18
2023-09-19T19:39:38.579Z,70.46
2023-09-19T19:41:40.758Z,70.45
2023-09-19T19:43:42.524Z,70.71
2023-09-19T19:45:54.339Z,71.06
2023-09-19T19:47:55.912Z,72.06
2023-09-19T19:49:57.594Z,72.15
2023-09-19T19:51:59.219Z,71.85
2023-09-19T19:54:02.078Z,71.33
2023-09-19T19:56:04.178Z,71.73
2023-09-19T19:58:05.710Z,72.02
2023-09-19T20:00:08.833Z,72.34
2023-09-19T20:02:11.939Z,72.38
2023-09-19T20:04:13.521Z,73.22
2023-09-19T20:06:15.053Z,73.93
2023-09-19T20:08:16.727Z,73.44
2023-09-19T20:10:18.519Z,72.15
2023-09-19T20:12:20.086Z,70.90
2023-09-19T20:14:21.713Z,70.84
2023-09-19T20:16:23.237Z,70.93
2023-09-19T20:18:27.032Z,70.81
2023-09-19T20:20:29.115Z,70.72
2023-09-19T20:22:30.653Z,70.79
2023-09-19T20:24:32.249Z,70.88
2023-09-19T20:26:37.335Z,70.64
2023-09-19T20:28:39.728Z,71.31
2023-09-19T20:30:42.015Z,71.46
2023-09-19T20:32:43.749Z,71.11
2023-09-19T20:34:46.702Z,70.74
2023-09-19T20:36:48.298Z,70.54
2023-09-19T20:38:50.401Z,70.91
2023-09-19T20:40:52.078Z,70.68
2023-09-19T20:42:53.614Z,70.33
2023-09-19T20:44:55.231Z,70.72
2023-09-19T20:46:56.804Z,70.77
2023-09-19T20:48:58.679Z,71.08
2023-09-19T20:51:06.899Z,71.36
2023-09-19T20:53:08.575Z,71.25
2023-09-19T20:55:10.089Z,71.73
2023-09-19T20:57:11.607Z,72.12
2023-09-19T20:59:13.213Z,72.29
2023-09-19T21:01:14.891Z,72.35
2023-09-19T21:03:16.489Z,72.54
2023-09-19T21:05:18.125Z,72.48
2023-09-19T21:07:21.032Z,72.59
2023-09-19T21:09:22.545Z,72.47
2023-09-19T21:11:24.660Z,73.08
2023-09-19T21:13:26.252Z,72.78
2023-09-19T21:15:27.810Z,73.38
2023-09-19T21:19:31.194Z,73.15
2023-09-19T21:21:35.078Z,73.95
2023-09-19T21:23:38.703Z,74.43
2023-09-19T21:25:40.745Z,74.73
2023-09-19T21:27:42.247Z,74.68
2023-09-19T21:29:43.796Z,74.15
2023-09-19T21:31:45.294Z,73.70
2023-09-19T21:33:46.809Z,74.21
2023-09-19T21:35:48.288Z,74.29
2023-09-19T21:37:49.839Z,74.53
2023-09-19T21:39:52.708Z,74.44
2023-09-19T21:41:54.267Z,74.44
2023-09-19T21:43:55.913Z,74.73
2023-09-19T21:45:57.652Z,74.85
2023-09-19T21:47:59.312Z,75.61
2023-09-19T21:50:00.939Z,74.28
2023-09-19T21:52:02.445Z,74.57
2023-09-19T21:54:04.409Z,74.72
2023-09-19T21:56:07.979Z,74.04
2023-09-19T21:58:09.511Z,74.39
2023-09-19T22:00:11.295Z,75.02
2023-09-19T22:02:12.846Z,75.25
2023-09-19T22:04:14.388Z,75.48
2023-09-19T22:06:15.932Z,76.41
2023-09-19T22:08:17.495Z,76.23
2023-09-19T22:10:19.040Z,76.91
2023-09-19T22:12:21.880Z,77.12
2023-09-19T22:14:23.439Z,77.72
2023-09-19T22:16:25.057Z,78.15
2023-09-19T22:18:26.606Z,78.89
2023-09-19T22:20:28.176Z,78.47
2023-09-19T22:22:29.735Z,78.90
2023-09-19T22:24:31.217Z,79.23
2023-09-19T22:26:32.745Z,79.27
2023-09-19T22:28:37.353Z,79.80
2023-09-19T22:30:40.446Z,80.29
2023-09-19T22:32:41.960Z,80.46
2023-09-19T22:34:43.520Z,80.61
2023-09-19T22:36:45.632Z,80.39
2023-09-19T22:38:47.564Z,80.49
2023-09-19T22:40:49.863Z,80.41
2023-09-19T22:42:51.424Z,80.25
2023-09-19T22:44:54.329Z,80.55
2023-09-19T22:46:55.908Z,80.65
2023-09-19T22:48:57.485Z,80.74
2023-09-19T22:50:59.015Z,80.81
2023-09-19T22:53:00.547Z,80.92
2023-09-19T22:55:02.086Z,81.27
2023-09-19T22:57:03.973Z,81.45
2023-09-19T22:59:05.561Z,82.01
2023-09-19T23:01:12.592Z,81.89
2023-09-19T23:03:14.248Z,82.24
2023-09-19T23:05:16.058Z,81.67
2023-09-19T23:07:17.620Z,82.12
2023-09-19T23:09:20.281Z,81.59
2023-09-19T23:11:22.060Z,82.62
2023-09-19T23:13:23.567Z,83.07
2023-09-19T23:15:25.129Z,83.55
2023-09-19T23:17:28.165Z,83.76
2023-09-19T23:19:29.716Z,83.64
2023-09-19T23:21:31.305Z,83.38
2023-09-19T23:23:32.868Z,83.94
2023-09-19T23:25:34.397Z,84.29
2023-09-19T23:27:36.895Z,84.19
2023-09-19T23:29:39.273Z,84.44
2023-09-19T23:31:40.792Z,85.43
2023-09-19T23:33:43.678Z,85.18
2023-09-19T23:35:45.211Z,85.03
2023-09-19T23:37:46.719Z,85.51
2023-09-19T23:39:48.349Z,86.54
2023-09-19T23:41:49.888Z,86.28
2023-09-19T23:43:51.508Z,86.53
2023-09-19T23:45:53.088Z,85.93
2023-09-19T23:47:55.220Z,86.34
2023-09-19T23:49:58.157Z,86.69
2023-09-19T23:51:59.696Z,86.43
2023-09-19T23:54:01.184Z,86.45
2023-09-19T23:56:03.241Z,87.08
2023-09-19T23:58:04.907Z,86.44
